createdAt,value
2022-08-11T00:04:58.462Z,2.97
2022-08-11T00:10:01.398Z,2.80
2022-08-11T00:15:02.663Z,3.50
2022-08-11T00:20:13.697Z,3.00
2022-08-11T00:25:20.208Z,3.40
2022-08-11T00:30:20.827Z,2.97
2022-08-11T00:35:50.978Z,2.85
2022-08-11T00:40:56.464Z,2.92
2022-08-11T00:46:13.516Z,3.00
2022-08-11T00:51:26.377Z,3.20
2022-08-11T00:57:36.783Z,2.88
2022-08-11T01:03:15.293Z,3.08
2022-08-11T01:08:31.135Z,3.05
2022-08-11T01:14:05.469Z,3.30
2022-08-11T01:20:38.466Z,3.00
2022-08-11T01:25:57.041Z,3.17
2022-08-11T01:31:38.661Z,3.15
2022-08-11T01:37:03.660Z,3.47
2022-08-11T01:43:00.075Z,3.50
2022-08-11T01:48:06.684Z,3.42
2022-08-11T01:53:19.009Z,3.05
2022-08-11T01:58:43.168Z,3.55
2022-08-11T02:03:48.947Z,3.00
2022-08-11T02:08:59.972Z,3.15
2022-08-11T02:14:25.590Z,3.45
2022-08-11T02:19:56.023Z,3.03
2022-08-11T02:25:02.961Z,3.83
2022-08-11T02:30:07.544Z,3.30
2022-08-11T02:35:18.950Z,3.13
2022-08-11T02:40:31.298Z,3.17
2022-08-11T02:45:50.098Z,3.03
2022-08-11T02:51:02.136Z,3.92
2022-08-11T02:56:14.044Z,3.80
2022-08-11T03:01:24.499Z,3.55
2022-08-11T03:06:36.360Z,3.85
2022-08-11T03:12:14.360Z,3.88
2022-08-11T03:17:26.850Z,4.00
2022-08-11T03:22:33.894Z,3.92
2022-08-11T03:27:47.268Z,3.53
2022-08-11T03:33:19.801Z,3.97
2022-08-11T03:38:30.775Z,3.72
2022-08-11T03:43:58.762Z,3.38
2022-08-11T03:49:10.466Z,4.03
2022-08-11T03:54:26.347Z,4.05
2022-08-11T03:59:56.832Z,4.10
2022-08-11T04:05:29.225Z,3.60
2022-08-11T04:10:47.858Z,4.30
2022-08-11T04:16:11.065Z,4.13
2022-08-11T04:21:27.823Z,4.50
2022-08-11T04:27:00.165Z,3.85
2022-08-11T04:32:25.620Z,4.47
2022-08-11T04:37:42.542Z,3.95
2022-08-11T04:43:29.069Z,3.58
2022-08-11T04:49:10.766Z,4.05
2022-08-11T04:54:47.656Z,4.30
2022-08-11T05:00:23.557Z,4.07
2022-08-11T05:05:37.022Z,3.88
2022-08-11T05:10:59.469Z,3.55
2022-08-11T05:16:26.536Z,3.90
2022-08-11T05:21:46.396Z,4.15
2022-08-11T05:27:13.388Z,4.10
2022-08-11T05:32:35.769Z,4.00
2022-08-11T05:38:01.708Z,4.10
2022-08-11T05:43:21.894Z,4.07
2022-08-11T05:48:40.929Z,4.35
2022-08-11T05:54:28.596Z,4.07
2022-08-11T05:59:32.544Z,3.38
2022-08-11T06:04:34.402Z,3.90
2022-08-11T06:09:38.843Z,3.40
2022-08-11T06:14:46.073Z,3.53
2022-08-11T06:19:49.767Z,3.72
2022-08-11T06:24:57.027Z,3.67
2022-08-11T06:29:58.285Z,3.10
2022-08-11T06:35:18.751Z,3.25
2022-08-11T06:40:31.498Z,2.95
2022-08-11T06:45:40.055Z,3.05
2022-08-11T06:50:58.868Z,2.75
2022-08-11T06:56:18.980Z,3.55
2022-08-11T07:01:28.293Z,3.03
2022-08-11T07:06:41.673Z,3.05
2022-08-11T07:12:20.677Z,3.30
2022-08-11T07:17:23.681Z,3.08
2022-08-11T07:22:45.498Z,3.08
2022-08-11T07:28:19.448Z,2.88
2022-08-11T07:34:07.860Z,2.60
2022-08-11T07:38:52.620Z,2.65
2022-08-11T07:44:08.729Z,3.20
2022-08-11T07:49:29.267Z,2.17
2022-08-11T07:54:33.422Z,2.33
2022-08-11T08:00:04.342Z,2.03
2022-08-11T08:05:36.563Z,2.58
2022-08-11T08:10:56.817Z,2.88
2022-08-11T08:16:16.938Z,2.03
2022-08-11T08:21:17.698Z,2.22
2022-08-11T08:26:33.612Z,2.22
2022-08-11T08:31:35.738Z,1.77
2022-08-11T08:36:37.401Z,1.77
2022-08-11T08:41:40.034Z,1.88
2022-08-11T08:46:44.555Z,2.20
2022-08-11T08:51:58.680Z,1.90
2022-08-11T08:57:12.144Z,1.52
2022-08-11T09:02:14.322Z,1.83
2022-08-11T09:07:17.723Z,2.00
2022-08-11T09:12:36.210Z,2.00
2022-08-11T09:17:44.575Z,2.08
2022-08-11T09:24:02.151Z,1.92
2022-08-11T09:28:25.790Z,1.90
2022-08-11T09:33:29.557Z,1.45
2022-08-11T09:38:49.728Z,1.90
2022-08-11T09:44:08.614Z,2.00
2022-08-11T09:49:11.074Z,2.13
2022-08-11T09:54:13.457Z,1.77
2022-08-11T09:59:14.206Z,1.35
2022-08-11T10:04:18.221Z,1.98
2022-08-11T10:09:22.173Z,1.98
2022-08-11T10:14:44.801Z,2.17
2022-08-11T10:20:04.082Z,1.63
2022-08-11T10:25:25.749Z,1.80
2022-08-11T10:30:44.929Z,1.50
2022-08-11T10:35:47.142Z,1.45
2022-08-11T10:41:10.813Z,1.60
2022-08-11T10:46:30.734Z,1.45
2022-08-11T10:51:52.111Z,1.20
2022-08-11T10:57:13.681Z,1.38
2022-08-11T11:02:16.058Z,1.15
2022-08-11T11:07:24.175Z,1.55
2022-08-11T11:12:45.670Z,1.60
2022-08-11T11:17:57.711Z,1.50
2022-08-11T11:23:05.721Z,1.45
2022-08-11T11:28:34.056Z,1.13
2022-08-11T11:34:06.195Z,1.30
2022-08-11T11:39:10.787Z,1.00
2022-08-11T11:44:14.060Z,1.60
2022-08-11T11:49:18.592Z,1.00
2022-08-11T11:54:23.763Z,1.08
2022-08-11T11:59:44.504Z,1.00
2022-08-11T12:04:48.779Z,1.20
2022-08-11T12:09:51.736Z,1.08
2022-08-11T12:14:54.326Z,1.30
2022-08-11T12:19:57.259Z,1.00
2022-08-11T12:25:17.114Z,0.77
2022-08-11T12:30:20.106Z,1.10
2022-08-11T12:35:21.082Z,0.88
2022-08-11T12:41:11.680Z,0.90
2022-08-11T12:46:07.466Z,0.93
2022-08-11T12:51:30.781Z,0.80
2022-08-11T12:57:15.952Z,0.90
2022-08-11T13:02:54.789Z,1.23
2022-08-11T13:07:55.666Z,1.08
2022-08-11T13:12:57.795Z,1.30
2022-08-11T13:18:00.314Z,1.20
2022-08-11T13:23:01.931Z,1.27
2022-08-11T13:28:06.295Z,1.20
2022-08-11T13:33:08.425Z,1.15
2022-08-11T13:38:17.935Z,1.13
2022-08-11T13:43:24.186Z,1.10
2022-08-11T13:48:25.041Z,1.30
2022-08-11T13:53:28.306Z,1.20
2022-08-11T13:58:39.553Z,1.30
2022-08-11T14:04:29.101Z,1.20
2022-08-11T14:09:05.317Z,1.05
2022-08-11T14:14:11.472Z,1.40
2022-08-11T14:19:15.331Z,1.20
2022-08-11T14:24:18.661Z,1.42
2022-08-11T14:29:22.663Z,1.50
2022-08-11T14:34:27.476Z,1.67
2022-08-11T14:39:30.169Z,1.30
2022-08-11T14:44:51.564Z,1.33
2022-08-11T14:50:03.090Z,1.40
2022-08-11T14:55:30.821Z,1.20
2022-08-11T15:00:35.441Z,1.50
2022-08-11T15:05:37.145Z,1.23
2022-08-11T15:10:38.146Z,1.48
2022-08-11T15:16:02.553Z,1.25
2022-08-11T15:21:23.868Z,1.50
2022-08-11T15:26:45.893Z,1.20
2022-08-11T15:32:06.550Z,1.52
2022-08-11T15:37:31.460Z,1.67
2022-08-11T15:42:51.584Z,1.50
2022-08-11T15:48:05.023Z,1.60
2022-08-11T15:53:10.002Z,1.23
2022-08-11T15:58:30.729Z,1.60
2022-08-11T16:04:07.119Z,1.38
2022-08-11T16:09:18.488Z,1.42
2022-08-11T16:14:39.616Z,1.40
2022-08-11T16:19:43.732Z,1.38
2022-08-11T16:27:05.817Z,1.45
2022-08-11T16:30:09.072Z,1.77
2022-08-11T16:35:32.247Z,1.58
2022-08-11T16:40:34.565Z,2.08
2022-08-11T16:45:55.308Z,1.60
2022-08-11T16:51:00.912Z,1.20
2022-08-11T16:56:06.650Z,1.30
2022-08-11T17:01:08.720Z,1.50
2022-08-11T17:06:31.680Z,1.02
2022-08-11T17:11:55.961Z,1.48
2022-08-11T17:16:58.303Z,1.02
2022-08-11T17:22:18.803Z,1.23
2022-08-11T17:27:23.967Z,1.45
2022-08-11T17:32:56.151Z,1.42
2022-08-11T17:38:05.228Z,1.27
2022-08-11T17:43:27.056Z,1.17
2022-08-11T17:48:30.148Z,1.30
2022-08-11T17:54:10.157Z,1.23
2022-08-11T17:59:32.400Z,1.52
2022-08-11T18:04:33.414Z,1.35
2022-08-11T18:09:53.165Z,1.25
2022-08-11T18:15:14.069Z,1.65
2022-08-11T18:20:32.185Z,1.33
2022-08-11T18:25:56.942Z,1.40
2022-08-11T18:31:19.131Z,1.55
2022-08-11T18:36:41.270Z,1.20
2022-08-11T18:42:03.199Z,1.52
2022-08-11T18:47:28.894Z,1.48
2022-08-11T18:52:49.679Z,1.27
2022-08-11T18:58:11.609Z,1.80
2022-08-11T19:03:32.333Z,1.35
2022-08-11T19:09:10.868Z,1.50
2022-08-11T19:14:31.548Z,1.80
2022-08-11T19:19:52.650Z,1.60
2022-08-11T19:25:13.142Z,1.80
2022-08-11T19:30:33.302Z,1.65
2022-08-11T19:35:52.304Z,1.73
2022-08-11T19:41:11.309Z,1.90
2022-08-11T19:46:31.852Z,1.73
2022-08-11T19:51:53.994Z,2.42
2022-08-11T19:57:13.475Z,2.92
2022-08-11T20:02:33.517Z,2.75
2022-08-11T20:07:52.417Z,2.20
2022-08-11T20:13:12.375Z,1.92
2022-08-11T20:18:42.570Z,2.60
2022-08-11T20:24:03.038Z,2.60
2022-08-11T20:29:21.688Z,2.47
2022-08-11T20:34:43.086Z,2.35
2022-08-11T20:40:04.104Z,1.88
2022-08-11T20:45:24.237Z,2.28
2022-08-11T20:50:45.628Z,2.35
2022-08-11T20:56:28.689Z,2.88
2022-08-11T21:01:52.227Z,3.40
2022-08-11T21:07:27.054Z,2.88
2022-08-11T21:12:50.735Z,2.60
2022-08-11T21:18:10.452Z,2.88
2022-08-11T21:23:50.683Z,2.80
2022-08-11T21:29:11.654Z,2.50
2022-08-11T21:34:32.449Z,2.30
2022-08-11T21:39:53.604Z,2.67
2022-08-11T21:45:13.723Z,2.55
2022-08-11T21:50:32.130Z,2.53
2022-08-11T21:55:53.447Z,2.47
2022-08-11T22:01:13.133Z,2.30
2022-08-11T22:06:32.291Z,2.85
2022-08-11T22:12:33.912Z,2.47
2022-08-11T22:17:30.844Z,2.30
2022-08-11T22:22:52.752Z,2.40
2022-08-11T22:28:13.079Z,2.40
2022-08-11T22:33:33.693Z,1.90
2022-08-11T22:38:53.906Z,1.95
2022-08-11T22:44:13.708Z,2.03
2022-08-11T22:49:42.295Z,2.08
2022-08-11T22:55:01.410Z,2.28
2022-08-11T23:00:21.196Z,2.10
2022-08-11T23:05:40.022Z,2.10
2022-08-11T23:10:59.480Z,1.83
2022-08-11T23:16:20.138Z,2.00
2022-08-11T23:21:38.936Z,1.98
2022-08-11T23:26:58.777Z,2.03
2022-08-11T23:32:21.300Z,1.95
2022-08-11T23:37:40.049Z,2.42
2022-08-11T23:42:59.437Z,1.95
2022-08-11T23:48:20.880Z,2.15
2022-08-11T23:53:39.725Z,2.00
2022-08-11T23:58:58.121Z,2.70
